SMHA weather

Henri Alwies Airstrip
Saramacca, Suriname

Public forecast

Using degrees Celsius for public forecast. Weather courtesy of forecast.io.

Closest aviation weather report (METAR) to Henri Alwies Airstrip

Closest report is Zorg en Hoop Airport, 26.7 nm (49.5 km) E. Retrieved 2019/10/23 22:00 UTC (12 minutes ago):

SMZO 232200Z 06006KT 9999 FEW015 30/23 Q1008 NOSIG

Closest aviation forecast (TAF) to Henri Alwies Airstrip

Closest forecast is Zorg en Hoop Airport, 26.7 nm (49.5 km) E. Retrieved 2019/10/23 18:15 UTC (4 hours ago):

TAF TAF SMZO 231600Z 2318/2418 07008KT 9999 SCT035 TX35/2318Z TN24/2409Z FM232200 08004KT CAVOK FM241200 10008KT 9999 SCT015